createdAt,value
2019-05-01T00:02:49.472Z,8.06
2019-05-01T00:05:26.085Z,8.07
2019-05-01T00:07:55.432Z,8.08
2019-05-01T00:10:26.551Z,8.08
2019-05-01T00:12:56.054Z,8.11
2019-05-01T00:15:27.303Z,8.08
2019-05-01T00:17:56.634Z,8.00
2019-05-01T00:20:26.051Z,8.04
2019-05-01T00:22:55.430Z,8.02
2019-05-01T00:25:24.756Z,8.10
2019-05-01T00:27:54.135Z,8.08
2019-05-01T00:30:30.011Z,8.08
2019-05-01T00:32:55.360Z,8.11
2019-05-01T00:35:24.727Z,8.04
2019-05-01T00:37:54.118Z,7.96
2019-05-01T00:40:23.446Z,8.01
2019-05-01T00:42:52.801Z,7.96
2019-05-01T00:45:22.465Z,7.83
2019-05-01T00:47:51.836Z,7.87
2019-05-01T00:50:21.201Z,7.89
2019-05-01T00:52:50.554Z,7.92
2019-05-01T00:55:37.500Z,7.93
2019-05-01T00:58:34.961Z,7.89
2019-05-01T01:01:26.195Z,7.88
2019-05-01T01:03:55.727Z,7.81
2019-05-01T01:06:25.058Z,7.90
2019-05-01T01:08:54.477Z,7.92
2019-05-01T01:11:23.862Z,7.90
2019-05-01T01:13:53.269Z,7.92
2019-05-01T01:16:22.670Z,8.07
2019-05-01T01:18:52.016Z,8.06
2019-05-01T01:21:21.388Z,8.32
2019-05-01T01:23:50.962Z,8.69
2019-05-01T01:26:20.297Z,9.17
2019-05-01T01:28:49.677Z,9.70
2019-05-01T01:31:19.046Z,10.02
2019-05-01T01:33:48.398Z,10.23
2019-05-01T01:36:17.817Z,10.38
2019-05-01T01:38:47.218Z,10.45
2019-05-01T01:41:16.794Z,10.46
2019-05-01T01:44:03.191Z,10.48
2019-05-01T01:46:33.185Z,10.51
2019-05-01T01:49:02.794Z,10.48
2019-05-01T01:51:32.289Z,10.54
2019-05-01T01:54:02.398Z,10.55
2019-05-01T01:56:31.768Z,10.52
2019-05-01T01:59:01.710Z,10.46
2019-05-01T02:01:45.497Z,10.48
2019-05-01T02:04:33.890Z,10.50
2019-05-01T02:07:03.266Z,10.38
2019-05-01T02:09:32.731Z,10.40
2019-05-01T02:12:02.712Z,10.38
2019-05-01T02:14:32.108Z,10.40
2019-05-01T02:17:01.484Z,10.45
2019-05-01T02:19:30.903Z,10.43
2019-05-01T02:22:00.237Z,10.49
2019-05-01T02:24:29.610Z,10.48
2019-05-01T02:27:01.003Z,10.48
2019-05-01T02:29:36.912Z,10.44
2019-05-01T02:32:06.728Z,10.42
2019-05-01T02:34:38.791Z,10.39
2019-05-01T02:37:09.932Z,10.49
2019-05-01T02:39:40.233Z,10.45
2019-05-01T02:42:12.490Z,10.52
2019-05-01T02:44:47.045Z,10.49
2019-05-01T02:47:21.494Z,10.48
2019-05-01T02:49:56.168Z,10.43
2019-05-01T02:52:29.242Z,10.31
2019-05-01T02:55:03.674Z,10.26
2019-05-01T02:57:35.301Z,10.34
2019-05-01T03:00:06.069Z,10.22
2019-05-01T03:02:36.613Z,10.27
2019-05-01T03:05:06.550Z,10.28
2019-05-01T03:07:37.746Z,10.30
2019-05-01T03:10:09.537Z,10.21
2019-05-01T03:12:41.996Z,10.26
2019-05-01T03:15:13.305Z,10.27
2019-05-01T03:17:52.382Z,10.20
2019-05-01T03:20:47.137Z,10.25
2019-05-01T03:23:39.471Z,10.13
2019-05-01T03:26:09.227Z,10.11
2019-05-01T03:28:38.876Z,10.19
2019-05-01T03:31:08.254Z,10.13
2019-05-01T03:33:37.927Z,10.19
2019-05-01T03:36:07.307Z,10.19
2019-05-01T03:38:36.951Z,10.25
2019-05-01T03:41:06.929Z,10.18
2019-05-01T03:43:36.801Z,10.21
2019-05-01T03:46:06.228Z,10.15
2019-05-01T03:48:35.678Z,10.19
2019-05-01T03:51:05.298Z,10.22
2019-05-01T03:53:35.570Z,10.21
2019-05-01T03:56:05.228Z,10.15
2019-05-01T03:58:34.621Z,10.13
2019-05-01T04:01:26.427Z,10.13
2019-05-01T04:03:59.069Z,10.09
2019-05-01T04:06:28.423Z,10.12
2019-05-01T04:08:58.483Z,10.01
2019-05-01T04:11:27.872Z,9.98
2019-05-01T04:13:57.934Z,10.01
2019-05-01T04:16:27.988Z,10.05
2019-05-01T04:18:57.565Z,10.05
2019-05-01T04:21:31.286Z,10.17
2019-05-01T04:24:01.525Z,10.13
2019-05-01T04:26:31.514Z,10.24
2019-05-01T04:29:28.907Z,10.33
2019-05-01T04:32:26.970Z,10.40
2019-05-01T04:35:24.553Z,10.42
2019-05-01T04:37:56.277Z,10.60
2019-05-01T04:40:25.992Z,10.71
2019-05-01T04:42:55.544Z,10.81
2019-05-01T04:45:25.026Z,10.88
2019-05-01T04:47:55.991Z,10.96
2019-05-01T04:50:25.933Z,10.99
2019-05-01T04:52:55.443Z,11.06
2019-05-01T04:55:24.962Z,10.99
2019-05-01T04:57:54.861Z,10.95
2019-05-01T05:00:24.409Z,10.95
2019-05-01T05:03:05.510Z,10.92
2019-05-01T05:05:35.084Z,10.97
2019-05-01T05:08:05.104Z,11.04
2019-05-01T05:10:35.186Z,11.08
2019-05-01T05:13:23.024Z,11.05
2019-05-01T05:16:10.913Z,11.02
2019-05-01T05:18:40.374Z,11.02
2019-05-01T05:21:10.274Z,10.96
2019-05-01T05:23:39.747Z,10.95
2019-05-01T05:26:09.917Z,11.10
2019-05-01T05:28:40.664Z,10.99
2019-05-01T05:31:11.272Z,11.02
2019-05-01T05:33:42.434Z,10.81
2019-05-01T05:36:14.144Z,10.89
2019-05-01T05:39:02.746Z,10.83
2019-05-01T05:41:33.217Z,10.81
2019-05-01T05:44:03.116Z,10.85
2019-05-01T05:46:32.621Z,10.81
2019-05-01T05:49:04.318Z,10.91
2019-05-01T05:51:45.124Z,10.91
2019-05-01T05:54:34.963Z,10.88
2019-05-01T05:57:25.529Z,10.92
2019-05-01T06:00:01.291Z,10.89
2019-05-01T06:02:58.328Z,11.11
2019-05-01T06:05:37.642Z,11.17
2019-05-01T06:08:11.780Z,11.35
2019-05-01T06:10:58.572Z,11.45
2019-05-01T06:13:43.727Z,11.48
2019-05-01T06:16:26.540Z,11.62
2019-05-01T06:19:09.662Z,11.65
2019-05-01T06:22:04.996Z,11.77
2019-05-01T06:24:40.670Z,11.95
2019-05-01T06:27:13.836Z,12.12
2019-05-01T06:29:41.288Z,12.18
2019-05-01T06:32:10.766Z,12.21
2019-05-01T06:34:40.223Z,12.09
2019-05-01T06:37:09.756Z,12.09
2019-05-01T06:39:42.996Z,12.20
2019-05-01T06:42:15.180Z,12.32
2019-05-01T06:44:55.313Z,12.35
2019-05-01T06:47:44.289Z,12.41
2019-05-01T06:50:27.649Z,12.49
2019-05-01T06:52:59.755Z,12.64
2019-05-01T06:55:29.287Z,12.77
2019-05-01T06:57:59.317Z,12.80
2019-05-01T07:00:28.926Z,12.79
2019-05-01T07:03:00.478Z,12.91
2019-05-01T07:05:31.066Z,12.99
2019-05-01T07:08:02.117Z,12.95
2019-05-01T07:10:43.158Z,12.91
2019-05-01T07:13:05.514Z,12.78
2019-05-01T07:15:35.608Z,12.84
2019-05-01T07:18:05.117Z,13.08
2019-05-01T07:20:53.573Z,13.16
2019-05-01T07:23:23.937Z,13.29
2019-05-01T07:25:53.411Z,13.27
2019-05-01T07:28:23.933Z,13.11
2019-05-01T07:30:59.786Z,13.30
2019-05-01T07:33:29.551Z,13.32
2019-05-01T07:35:59.016Z,13.46
2019-05-01T07:38:28.423Z,13.47
2019-05-01T07:40:58.841Z,13.29
2019-05-01T07:43:59.681Z,13.28
2019-05-01T07:46:56.595Z,13.32
2019-05-01T07:49:42.204Z,13.51
2019-05-01T07:52:12.492Z,13.67
2019-05-01T07:54:43.530Z,13.78
2019-05-01T07:57:13.139Z,13.92
2019-05-01T07:59:42.647Z,13.92
2019-05-01T08:02:13.836Z,13.84
2019-05-01T08:04:43.257Z,13.79
2019-05-01T08:07:12.640Z,13.87
2019-05-01T08:09:45.835Z,13.86
2019-05-01T08:12:14.458Z,13.88
2019-05-01T08:14:47.826Z,13.97
2019-05-01T08:17:17.971Z,13.88
2019-05-01T08:20:14.700Z,14.03
2019-05-01T08:22:40.972Z,14.16
2019-05-01T08:25:10.751Z,14.48
2019-05-01T08:27:56.414Z,14.65
2019-05-01T08:30:57.063Z,14.69
2019-05-01T08:33:49.881Z,14.71
2019-05-01T08:36:19.589Z,14.71
2019-05-01T08:38:49.025Z,14.87
2019-05-01T08:41:18.411Z,14.87
2019-05-01T08:43:48.999Z,15.15
2019-05-01T08:46:38.673Z,15.13
2019-05-01T08:49:16.998Z,14.96
2019-05-01T08:51:46.503Z,14.85
2019-05-01T08:54:15.875Z,15.00
2019-05-01T08:56:45.208Z,14.87
2019-05-01T08:59:14.936Z,14.87
2019-05-01T09:01:45.853Z,15.15
2019-05-01T09:04:15.487Z,15.04
2019-05-01T09:06:45.255Z,14.98
2019-05-01T09:09:14.724Z,14.85
2019-05-01T09:11:44.172Z,14.85
2019-05-01T09:14:13.559Z,14.87
2019-05-01T09:16:42.965Z,14.80
2019-05-01T09:19:12.321Z,14.76
2019-05-01T09:21:41.721Z,14.90
2019-05-01T09:24:11.236Z,15.09
2019-05-01T09:26:50.107Z,15.33
2019-05-01T09:29:26.461Z,15.33
2019-05-01T09:31:56.007Z,15.08
2019-05-01T09:34:25.514Z,15.10
2019-05-01T09:36:54.880Z,15.28
2019-05-01T09:39:24.996Z,15.82
2019-05-01T09:41:54.395Z,16.09
2019-05-01T09:44:23.755Z,15.80
2019-05-01T09:46:53.121Z,15.80
2019-05-01T09:49:22.938Z,15.90
2019-05-01T09:52:06.538Z,16.13
2019-05-01T09:54:57.670Z,16.33
2019-05-01T09:57:27.040Z,16.36
2019-05-01T09:59:56.461Z,16.29
2019-05-01T10:02:25.857Z,16.40
2019-05-01T10:04:55.283Z,16.47
2019-05-01T10:07:29.013Z,16.59
2019-05-01T10:09:55.783Z,16.63
2019-05-01T10:12:25.259Z,16.56
2019-05-01T10:14:54.663Z,16.33
2019-05-01T10:17:24.113Z,16.43
2019-05-01T10:19:53.450Z,16.95
2019-05-01T10:22:22.884Z,16.71
2019-05-01T10:24:53.192Z,16.42
2019-05-01T10:27:25.511Z,16.61
2019-05-01T10:30:13.786Z,16.64
2019-05-01T10:32:46.230Z,16.83
2019-05-01T10:35:42.583Z,16.98
2019-05-01T10:38:09.221Z,17.06
2019-05-01T10:40:36.124Z,16.69
2019-05-01T10:43:05.655Z,16.36
2019-05-01T10:45:35.032Z,16.65
2019-05-01T10:48:04.536Z,17.06
2019-05-01T10:50:33.939Z,17.45
2019-05-01T10:53:03.350Z,17.24
2019-05-01T10:55:32.741Z,17.54
2019-05-01T10:58:03.462Z,17.85
2019-05-01T11:00:33.756Z,18.35
2019-05-01T11:03:03.130Z,18.88
2019-05-01T11:05:32.507Z,18.74
2019-05-01T11:08:02.265Z,18.01
2019-05-01T11:10:31.659Z,18.28
2019-05-01T11:13:01.046Z,18.02
2019-05-01T11:15:30.535Z,18.05
2019-05-01T11:17:59.959Z,18.71
2019-05-01T11:20:29.325Z,18.35
2019-05-01T11:22:58.711Z,18.69
2019-05-01T11:25:28.376Z,18.43
2019-05-01T11:27:57.788Z,19.06
2019-05-01T11:30:27.284Z,19.88
2019-05-01T11:33:11.896Z,19.71
2019-05-01T11:36:10.032Z,20.32
2019-05-01T11:39:01.561Z,19.64
2019-05-01T11:41:34.989Z,20.69
2019-05-01T11:44:04.734Z,21.18
2019-05-01T11:46:34.107Z,21.52
2019-05-01T11:49:03.538Z,20.93
2019-05-01T11:51:32.948Z,20.12
2019-05-01T11:54:02.970Z,19.23
2019-05-01T11:56:32.317Z,18.51
2019-05-01T11:59:01.696Z,18.07
2019-05-01T12:01:31.179Z,17.86
2019-05-01T12:04:00.526Z,17.83
2019-05-01T12:06:29.943Z,17.83
2019-05-01T12:08:59.352Z,17.86
2019-05-01T12:11:31.120Z,18.21
2019-05-01T12:14:00.512Z,17.84
2019-05-01T12:16:47.739Z,17.90
2019-05-01T12:19:17.430Z,18.04
2019-05-01T12:21:46.807Z,18.00
2019-05-01T12:24:16.191Z,17.75
2019-05-01T12:26:45.671Z,17.46
2019-05-01T12:29:15.075Z,17.60
2019-05-01T12:31:44.491Z,17.26
2019-05-01T12:34:13.851Z,17.15
2019-05-01T12:36:44.207Z,17.15
2019-05-01T12:39:15.864Z,17.65
2019-05-01T12:41:54.195Z,18.09
2019-05-01T12:44:23.635Z,17.73
2019-05-01T12:46:59.529Z,17.63
2019-05-01T12:49:28.946Z,17.73
2019-05-01T12:52:10.254Z,18.17
2019-05-01T12:54:48.096Z,18.10
2019-05-01T12:57:17.906Z,17.78
2019-05-01T12:59:47.302Z,17.45
2019-05-01T13:02:16.685Z,17.24
2019-05-01T13:04:46.061Z,17.64
2019-05-01T13:07:15.748Z,18.13
2019-05-01T13:09:45.131Z,18.00
2019-05-01T13:12:14.530Z,18.71
2019-05-01T13:14:43.917Z,19.16
2019-05-01T13:17:13.356Z,19.38
2019-05-01T13:19:42.707Z,19.92
2019-05-01T13:22:12.065Z,20.55
2019-05-01T13:24:50.422Z,21.06
2019-05-01T13:27:39.007Z,20.81
2019-05-01T13:30:32.739Z,21.30
2019-05-01T13:33:02.224Z,21.31
2019-05-01T13:35:31.624Z,20.85
2019-05-01T13:38:01.116Z,20.40
2019-05-01T13:40:30.564Z,20.09
2019-05-01T13:42:59.955Z,20.94
2019-05-01T13:45:29.323Z,21.95
2019-05-01T13:47:58.670Z,21.80
2019-05-01T13:50:28.648Z,21.28
2019-05-01T13:52:58.022Z,21.17
2019-05-01T13:55:28.176Z,21.43
2019-05-01T13:57:57.549Z,21.11
2019-05-01T14:00:27.270Z,20.52
2019-05-01T14:02:56.674Z,19.53
2019-05-01T14:05:26.409Z,19.13
2019-05-01T14:07:55.794Z,18.69
2019-05-01T14:10:25.273Z,18.64
2019-05-01T14:12:54.660Z,18.73
2019-05-01T14:15:24.015Z,18.95
2019-05-01T14:17:53.398Z,18.68
2019-05-01T14:20:41.695Z,18.76
2019-05-01T14:23:17.686Z,18.75
2019-05-01T14:26:06.660Z,18.96
2019-05-01T14:28:36.232Z,19.88
2019-05-01T14:31:06.807Z,19.59
2019-05-01T14:33:36.311Z,19.25
2019-05-01T14:36:05.708Z,18.93
2019-05-01T14:38:35.565Z,18.55
2019-05-01T14:41:05.078Z,17.49
2019-05-01T14:43:34.541Z,16.81
2019-05-01T14:46:03.924Z,16.49
2019-05-01T14:48:33.395Z,16.68
2019-05-01T14:51:02.801Z,17.41
2019-05-01T14:53:32.485Z,17.56
2019-05-01T14:56:02.337Z,17.61
2019-05-01T14:58:31.762Z,17.59
2019-05-01T15:01:01.108Z,17.43
2019-05-01T15:03:30.482Z,16.87
2019-05-01T15:05:59.834Z,16.39
2019-05-01T15:08:29.270Z,16.65
2019-05-01T15:10:58.642Z,17.07
2019-05-01T15:13:34.756Z,17.42
2019-05-01T15:16:21.757Z,17.94
2019-05-01T15:19:08.609Z,18.52
2019-05-01T15:21:37.977Z,18.94
2019-05-01T15:24:07.340Z,18.70
2019-05-01T15:26:36.746Z,18.59
2019-05-01T15:29:06.119Z,18.17
2019-05-01T15:31:35.510Z,17.55
2019-05-01T15:34:04.964Z,17.35
2019-05-01T15:36:34.367Z,17.11
2019-05-01T15:39:06.819Z,16.77
2019-05-01T15:42:04.076Z,16.55
2019-05-01T15:44:35.565Z,16.32
2019-05-01T15:47:06.054Z,16.68
2019-05-01T15:49:36.505Z,16.87
2019-05-01T15:52:05.921Z,16.72
2019-05-01T15:54:35.279Z,16.74
2019-05-01T15:57:05.534Z,17.29
2019-05-01T15:59:36.032Z,17.46
2019-05-01T16:02:05.718Z,18.02
2019-05-01T16:04:35.145Z,18.66
2019-05-01T16:07:04.561Z,18.85
2019-05-01T16:09:33.951Z,18.94
2019-05-01T16:12:34.482Z,19.38
2019-05-01T16:15:05.612Z,19.49
2019-05-01T16:17:35.038Z,19.28
2019-05-01T16:20:04.735Z,18.99
2019-05-01T16:22:34.131Z,18.58
2019-05-01T16:25:03.620Z,18.01
2019-05-01T16:27:33.014Z,17.30
2019-05-01T16:30:02.547Z,17.01
2019-05-01T16:32:31.966Z,16.86
2019-05-01T16:35:01.256Z,16.26
2019-05-01T16:37:30.722Z,16.06
2019-05-01T16:40:18.819Z,15.32
2019-05-01T16:42:48.181Z,15.32
2019-05-01T16:45:17.781Z,15.28
2019-05-01T16:47:47.206Z,15.43
2019-05-01T16:50:16.812Z,15.11
2019-05-01T16:52:46.200Z,15.11
2019-05-01T16:55:16.168Z,14.83
2019-05-01T16:57:45.649Z,14.58
2019-05-01T17:00:17.677Z,14.46
2019-05-01T17:03:10.633Z,14.30
2019-05-01T17:06:11.397Z,14.33
2019-05-01T17:08:52.996Z,14.31
2019-05-01T17:11:31.185Z,14.17
2019-05-01T17:14:00.897Z,14.05
2019-05-01T17:16:30.390Z,13.78
2019-05-01T17:18:59.816Z,13.56
2019-05-01T17:21:29.226Z,13.56
2019-05-01T17:23:58.625Z,13.40
2019-05-01T17:26:28.068Z,13.23
2019-05-01T17:28:57.424Z,13.13
2019-05-01T17:31:28.697Z,13.11
2019-05-01T17:33:58.144Z,12.99
2019-05-01T17:36:27.560Z,12.98
2019-05-01T17:38:56.992Z,12.87
2019-05-01T17:41:27.213Z,12.81
2019-05-01T17:43:57.705Z,12.71
2019-05-01T17:46:27.084Z,12.62
2019-05-01T17:48:56.452Z,12.57
2019-05-01T17:51:25.917Z,12.49
2019-05-01T17:53:55.316Z,12.47
2019-05-01T17:56:28.355Z,12.34
2019-05-01T17:58:55.823Z,12.30
2019-05-01T18:01:45.957Z,12.26
2019-05-01T18:04:21.340Z,12.22
2019-05-01T18:06:51.542Z,12.18
2019-05-01T18:09:21.115Z,12.05
2019-05-01T18:11:52.175Z,11.95
2019-05-01T18:14:26.066Z,11.89
2019-05-01T18:16:52.760Z,11.99
2019-05-01T18:19:23.479Z,11.96
2019-05-01T18:22:14.649Z,11.86
2019-05-01T18:24:53.890Z,11.76
2019-05-01T18:27:49.961Z,11.74
2019-05-01T18:30:20.503Z,11.73
2019-05-01T18:32:52.387Z,11.66
2019-05-01T18:35:20.588Z,11.68
2019-05-01T18:37:57.434Z,11.62
2019-05-01T18:40:34.663Z,11.65
2019-05-01T18:43:04.887Z,11.55
2019-05-01T18:45:54.588Z,11.59
2019-05-01T18:48:25.383Z,11.74
2019-05-01T18:50:56.388Z,11.77
2019-05-01T18:53:26.287Z,11.75
2019-05-01T18:55:55.678Z,11.77
2019-05-01T18:58:25.041Z,11.77
2019-05-01T19:00:54.526Z,11.72
2019-05-01T19:03:23.982Z,11.69
2019-05-01T19:05:57.288Z,11.70
2019-05-01T19:08:26.676Z,11.70
2019-05-01T19:10:56.056Z,11.68
2019-05-01T19:13:25.602Z,11.66
2019-05-01T19:15:54.964Z,11.61
2019-05-01T19:18:24.403Z,11.55
2019-05-01T19:20:59.655Z,11.54
2019-05-01T19:23:27.986Z,11.54
2019-05-01T19:26:03.597Z,11.54
2019-05-01T19:28:29.103Z,11.55
2019-05-01T19:30:58.460Z,11.54
2019-05-01T19:33:27.835Z,11.61
2019-05-01T19:35:57.287Z,11.54
2019-05-01T19:38:29.563Z,11.52
2019-05-01T19:40:57.780Z,11.61
2019-05-01T19:43:27.456Z,11.67
2019-05-01T19:45:57.241Z,11.64
2019-05-01T19:48:26.671Z,11.68
2019-05-01T19:50:56.151Z,11.61
2019-05-01T19:53:28.767Z,11.45
2019-05-01T19:55:56.976Z,11.40
2019-05-01T19:58:26.568Z,11.43
2019-05-01T20:01:06.615Z,11.42
2019-05-01T20:03:37.049Z,11.38
2019-05-01T20:06:08.239Z,11.39
2019-05-01T20:08:37.808Z,11.40
2019-05-01T20:11:09.513Z,11.42
2019-05-01T20:13:38.521Z,11.40
2019-05-01T20:16:09.120Z,11.37
2019-05-01T20:18:38.576Z,11.33
2019-05-01T20:21:08.118Z,11.30
2019-05-01T20:23:37.522Z,11.35
2019-05-01T20:26:06.973Z,11.36
2019-05-01T20:28:43.333Z,11.37
2019-05-01T20:31:14.460Z,11.37
2019-05-01T20:33:44.460Z,11.33
2019-05-01T20:36:14.067Z,11.35
2019-05-01T20:38:43.456Z,11.35
2019-05-01T20:41:15.931Z,11.33
2019-05-01T20:43:45.398Z,11.35
2019-05-01T20:46:15.006Z,11.37
2019-05-01T20:48:46.421Z,11.35
2019-05-01T20:51:15.810Z,11.34
2019-05-01T20:53:45.179Z,11.36
2019-05-01T20:56:28.681Z,11.36
2019-05-01T20:59:03.325Z,11.32
2019-05-01T21:01:29.550Z,11.29
2019-05-01T21:04:27.140Z,11.31
2019-05-01T21:07:19.943Z,11.28
2019-05-01T21:09:48.423Z,11.27
2019-05-01T21:12:18.539Z,11.21
2019-05-01T21:14:49.761Z,11.21
2019-05-01T21:17:19.030Z,11.16
2019-05-01T21:19:48.473Z,11.09
2019-05-01T21:22:17.889Z,11.02
2019-05-01T21:24:47.399Z,10.94
2019-05-01T21:27:16.779Z,10.94
2019-05-01T21:29:46.129Z,10.86
2019-05-01T21:32:18.382Z,10.88
2019-05-01T21:34:46.613Z,10.87
2019-05-01T21:37:16.007Z,10.84
2019-05-01T21:39:45.396Z,10.89
2019-05-01T21:42:16.000Z,10.92
2019-05-01T21:44:46.187Z,10.97
2019-05-01T21:47:15.579Z,10.92
2019-05-01T21:49:45.025Z,10.87
2019-05-01T21:52:17.968Z,10.85
2019-05-01T21:54:45.518Z,10.70
2019-05-01T21:57:17.418Z,10.62
2019-05-01T21:59:48.121Z,10.55
2019-05-01T22:02:17.137Z,10.48
2019-05-01T22:04:47.276Z,10.33
2019-05-01T22:07:16.815Z,10.23
2019-05-01T22:09:50.517Z,10.12
2019-05-01T22:12:17.754Z,10.08
2019-05-01T22:14:57.384Z,10.02
2019-05-01T22:17:35.119Z,9.93
2019-05-01T22:20:05.835Z,9.89
2019-05-01T22:22:45.919Z,9.84
2019-05-01T22:25:34.342Z,9.79
2019-05-01T22:28:19.896Z,9.72
2019-05-01T22:31:07.920Z,9.67
2019-05-01T22:33:37.566Z,9.63
2019-05-01T22:36:06.920Z,9.56
2019-05-01T22:38:36.375Z,9.48
2019-05-01T22:41:11.864Z,9.47
2019-05-01T22:43:41.257Z,9.41
2019-05-01T22:46:18.130Z,9.47
2019-05-01T22:48:47.471Z,9.44
2019-05-01T22:51:22.658Z,9.44
2019-05-01T22:53:55.180Z,9.37
2019-05-01T22:56:25.731Z,9.34
2019-05-01T22:58:55.139Z,9.24
2019-05-01T23:01:25.561Z,9.24
2019-05-01T23:03:57.344Z,9.29
2019-05-01T23:06:28.674Z,9.25
2019-05-01T23:08:58.015Z,9.14
2019-05-01T23:11:29.487Z,9.12
2019-05-01T23:13:58.850Z,9.09
2019-05-01T23:16:31.987Z,9.04
2019-05-01T23:19:02.057Z,9.11
2019-05-01T23:21:31.345Z,9.11
2019-05-01T23:24:01.866Z,9.10
2019-05-01T23:26:31.857Z,9.21
2019-05-01T23:29:01.315Z,9.23
2019-05-01T23:31:30.854Z,9.31
2019-05-01T23:34:00.446Z,9.31
2019-05-01T23:36:29.826Z,9.40
2019-05-01T23:38:59.178Z,9.40
2019-05-01T23:41:45.331Z,9.39
2019-05-01T23:44:03.584Z,9.42
2019-05-01T23:46:30.761Z,9.43
2019-05-01T23:49:00.157Z,9.35
2019-05-01T23:51:29.907Z,9.39
2019-05-01T23:53:59.399Z,9.42
2019-05-01T23:56:31.085Z,9.36
2019-05-01T23:58:59.879Z,9.41
